Aérodrome :
LOGIN :

S'inscrire | Disclaimer

   EN    FR    IT 

 










Légende :    VFR   VFR Marginal   IFR   IFR Intensif   IFR Très Intensif
Visi : 
Plafond : 
>= 8 km
>= 3000ft
5 à 8 km
1000 à 3000 ft
1500m à 5 km
500 à 1000 ft
800 à 1500m
200 à 500 ft
< 800m
< 200 ft
Symboles :   Orages  Brouillard  Fortes neiges  Fortes précipitations  Vent > 20 kt
SIGMETs :   Divers  Orages  Givrage  Turbulence  Onde Orograph.  Cendres Volcan.







- Altitude de l'aérodrome : 622 ft
- Code IATA : BRS
- Voir les cartes d'approche


EGGD - Bristol Int.

DERNIER METAR :
  • 171520Z 25009KT 210V280 9999 SCT034 19/15 Q1012

METARs EXPIRÉS :
  • 171450Z 26010KT 9999 SCT022 SCT047 19/14 Q1012
  • 171420Z AUTO 26009KT 9999 BKN020 19/15 Q1012
  • 171350Z AUTO 26012KT 9999 SCT022 BKN030 20/14 Q1012
  • 171320Z AUTO 26013KT 9999 FEW025 SCT030 19/14 Q1012
  • 171250Z 25012KT 9999 FEW021 SCT033 19/14 Q1012
  • 171220Z AUTO 25011KT 9999 SCT018 SCT023 BKN044 19/14 Q1012

TAF TAF EGGD
Valide du 17 à 12h jusqu'au 18 à 12h UTC


171056Z 1712/1812 25014KT 9999 SCT025
PROB30
TEMPO 1712/1720 5000 SHRA BKN014
TEMPO 1800/1812 7000 SHRA BKN014
PROB30
TEMPO 1811/1812 24017G27KT 4000 +SHRA
ATIS : +44 1275 473 666
Pas de NOTAMs connus pour ce terrain.



MET'MAP, la Météo Aéronautique d'un coup d'oeil ! - Copyright ORBIFLY Décembre 2007 - Disclaimer

ORBIFLY MET'MAP TEAM :

Programmation & Développement : Alexandra Zaïnal
Conception & Développement : Baudouin d'Aumeries
Co-Programmation & Développement : Marc-Olivier Méhu
Soutien technique & logistique : Manuel Goepfert

Contact : metmap@orbifly.com




SOURCES & CREDITS :

   NOAA